Time;durP1;ratioP1;P1;durP2;ratioP2;P2;SDS_P1;SDS_P2;PMS_P1;PMS_P2;Temp;Humidity;BMP_temperature;BMP_pressure;BME280_temperature;BME280_humidity;BME280_pressure;Samples;Min_cycle;Max_cycle;Signal;HPM_P1;HPM_P2
2023/11/13 00:02:13;;;;;;;246.63;226.98;;;;;;;;;;5009721;28;25129;-72
2023/11/13 00:04:39;;;;;;;248.10;228.10;;;;;;;;;;4997795;28;25070;-72
2023/11/13 00:07:05;;;;;;;248.13;228.25;;;;;;;;;;5006473;28;25062;-73
2023/11/13 00:09:31;;;;;;;249.75;229.55;;;;;;;;;;4990938;28;25067;-72
2023/11/13 00:11:57;;;;;;;258.40;237.55;;;;;;;;;;4986735;28;25105;-71
2023/11/13 00:14:23;;;;;;;262.33;240.85;;;;;;;;;;4994296;28;25084;-72
2023/11/13 00:16:49;;;;;;;264.77;243.10;;;;;;;;;;4994400;28;25514;-71
2023/11/13 00:19:16;;;;;;;265.92;244.50;;;;;;;;;;4992407;28;25061;-72
2023/11/13 00:21:42;;;;;;;263.15;241.73;;;;;;;;;;5013158;28;25157;-71
2023/11/13 00:24:08;;;;;;;252.80;232.00;;;;;;;;;;5020785;28;25063;-71
2023/11/13 00:26:34;;;;;;;252.40;231.35;;;;;;;;;;5019095;28;25057;-73
2023/11/13 00:29:02;;;;;;;248.98;228.63;;;;;;;;;;5005613;28;25077;-73
2023/11/13 00:31:28;;;;;;;247.82;228.40;;;;;;;;;;4995782;28;25075;-72
2023/11/13 00:33:54;;;;;;;250.40;230.23;;;;;;;;;;4989881;28;25098;-72
2023/11/13 00:36:20;;;;;;;247.35;227.68;;;;;;;;;;4994001;28;25190;-71
2023/11/13 00:38:46;;;;;;;250.32;230.82;;;;;;;;;;4998918;28;25052;-74
2023/11/13 00:41:12;;;;;;;252.50;232.10;;;;;;;;;;5000094;28;25094;-72
2023/11/13 00:43:39;;;;;;;243.32;223.68;;;;;;;;;;5014925;28;25076;-72
2023/11/13 00:46:06;;;;;;;243.23;222.95;;;;;;;;;;5008040;28;25092;-73
2023/11/13 00:48:32;;;;;;;223.05;204.52;;;;;;;;;;4986719;28;25076;-71
2023/11/13 00:50:58;;;;;;;220.38;202.35;;;;;;;;;;4989641;28;25177;-72
2023/11/13 00:53:24;;;;;;;221.88;203.82;;;;;;;;;;4995038;28;25076;-72
2023/11/13 00:55:51;;;;;;;223.35;204.95;;;;;;;;;;4994291;28;25127;-72
2023/11/13 00:58:17;;;;;;;219.30;201.43;;;;;;;;;;4990394;28;25154;-73
2023/11/13 01:00:43;;;;;;;219.07;200.88;;;;;;;;;;5002374;28;25151;-72
2023/11/13 01:03:09;;;;;;;214.50;196.80;;;;;;;;;;5004464;28;25113;-72
2023/11/13 01:05:35;;;;;;;221.23;203.30;;;;;;;;;;5009934;28;25161;-72
2023/11/13 01:08:03;;;;;;;214.27;196.90;;;;;;;;;;5007289;28;25058;-72
2023/11/13 01:10:29;;;;;;;220.88;202.77;;;;;;;;;;5004177;28;25080;-71
2023/11/13 01:12:55;;;;;;;226.68;208.30;;;;;;;;;;4999964;28;25098;-72
2023/11/13 01:15:22;;;;;;;224.85;206.23;;;;;;;;;;5007328;28;25106;-71
2023/11/13 01:17:48;;;;;;;222.27;203.88;;;;;;;;;;5010410;28;25058;-71
2023/11/13 01:20:15;;;;;;;222.13;203.50;;;;;;;;;;5009311;28;25150;-71
2023/11/13 01:22:41;;;;;;;225.57;206.25;;;;;;;;;;5008984;28;25167;-72
2023/11/13 01:25:10;;;;;;;219.35;200.95;;;;;;;;;;5008634;28;25065;-72
2023/11/13 01:27:36;;;;;;;214.45;196.45;;;;;;;;;;5011087;28;25074;-73
2023/11/13 01:30:02;;;;;;;215.48;197.30;;;;;;;;;;5013813;28;25084;-72
2023/11/13 01:32:28;;;;;;;218.02;199.18;;;;;;;;;;5011949;28;25114;-72
2023/11/13 01:34:54;;;;;;;230.40;210.75;;;;;;;;;;5002007;28;25098;-74
2023/11/13 01:37:22;;;;;;;217.63;199.02;;;;;;;;;;5013709;28;25089;-70
2023/11/13 01:39:48;;;;;;;216.27;197.70;;;;;;;;;;5017686;28;25083;-71
2023/11/13 01:42:14;;;;;;;225.32;206.55;;;;;;;;;;4992889;28;25066;-72
2023/11/13 01:44:40;;;;;;;208.40;190.63;;;;;;;;;;4988362;28;25130;-71
2023/11/13 01:47:06;;;;;;;211.23;193.20;;;;;;;;;;4994952;28;25060;-72
2023/11/13 01:49:32;;;;;;;218.85;200.30;;;;;;;;;;5002406;28;25059;-73
2023/11/13 01:51:59;;;;;;;219.32;201.32;;;;;;;;;;5007032;28;25071;-72
2023/11/13 01:54:24;;;;;;;223.32;205.05;;;;;;;;;;4982267;28;25052;-71
2023/11/13 01:56:51;;;;;;;214.75;196.70;;;;;;;;;;4989542;28;25052;-72
2023/11/13 01:59:17;;;;;;;221.18;203.52;;;;;;;;;;4985270;28;25065;-72
2023/11/13 02:01:43;;;;;;;221.38;203.40;;;;;;;;;;4987724;28;25086;-72
2023/11/13 02:04:09;;;;;;;219.98;201.98;;;;;;;;;;4987287;28;25140;-74
2023/11/13 02:06:35;;;;;;;223.50;205.60;;;;;;;;;;4994363;28;25081;-72
2023/11/13 02:09:05;;;;;;;216.38;198.90;;;;;;;;;;4986350;28;25066;-72
2023/11/13 02:11:31;;;;;;;212.70;195.40;;;;;;;;;;4989458;28;25158;-71
2023/11/13 02:13:57;;;;;;;215.05;198.43;;;;;;;;;;4994620;28;25139;-72
2023/11/13 02:16:24;;;;;;;205.00;188.75;;;;;;;;;;5004886;28;25061;-71
2023/11/13 02:18:50;;;;;;;208.80;192.18;;;;;;;;;;4984576;28;25157;-71
2023/11/13 02:21:16;;;;;;;209.68;192.95;;;;;;;;;;4988473;28;25076;-71
2023/11/13 02:23:42;;;;;;;220.32;202.43;;;;;;;;;;4989510;28;25134;-72
2023/11/13 02:26:17;;;;;;;224.90;206.55;;;;;;;;;;4987763;28;25084;-72
2023/11/13 02:28:43;;;;;;;223.32;204.82;;;;;;;;;;4992711;28;25074;-72
2023/11/13 02:31:10;;;;;;;225.40;206.82;;;;;;;;;;5000398;28;25111;-71
2023/11/13 02:33:36;;;;;;;226.05;207.35;;;;;;;;;;4989994;28;25075;-72
2023/11/13 02:36:02;;;;;;;225.43;206.63;;;;;;;;;;4998446;28;25064;-72
2023/11/13 02:38:29;;;;;;;219.82;201.60;;;;;;;;;;4990005;28;25051;-71
2023/11/13 02:40:56;;;;;;;221.43;202.90;;;;;;;;;;4992395;28;25072;-72
2023/11/13 02:43:22;;;;;;;222.65;204.25;;;;;;;;;;4999594;28;25063;-72
2023/11/13 02:45:48;;;;;;;216.73;198.68;;;;;;;;;;5000528;28;25056;-72
2023/11/13 02:48:14;;;;;;;220.80;202.23;;;;;;;;;;4987104;28;25069;-72
2023/11/13 02:50:40;;;;;;;223.23;204.52;;;;;;;;;;4996042;28;25054;-72
2023/11/13 02:53:06;;;;;;;221.00;202.90;;;;;;;;;;4981321;28;25070;-72
2023/11/13 02:55:32;;;;;;;226.45;207.98;;;;;;;;;;4992489;28;25065;-72
2023/11/13 02:57:58;;;;;;;223.68;205.52;;;;;;;;;;4988302;28;25069;-70
2023/11/13 03:00:24;;;;;;;223.13;204.68;;;;;;;;;;5000597;28;25088;-71
2023/11/13 03:02:50;;;;;;;231.95;213.13;;;;;;;;;;4992674;28;25045;-71
2023/11/13 03:05:16;;;;;;;234.02;214.52;;;;;;;;;;4996916;28;25059;-72
2023/11/13 03:07:45;;;;;;;236.18;216.57;;;;;;;;;;4988395;28;25144;-71
2023/11/13 03:10:12;;;;;;;237.75;217.77;;;;;;;;;;5009065;28;25098;-72
2023/11/13 03:12:41;;;;;;;237.85;217.70;;;;;;;;;;5005404;28;25068;-70
2023/11/13 03:15:09;;;;;;;232.55;212.95;;;;;;;;;;4997217;28;25066;-72
2023/11/13 03:17:35;;;;;;;231.93;212.15;;;;;;;;;;5003068;28;25046;-71
2023/11/13 03:20:03;;;;;;;236.70;216.68;;;;;;;;;;5008843;28;25040;-71
2023/11/13 03:22:29;;;;;;;251.07;229.48;;;;;;;;;;5007302;28;25092;-70
2023/11/13 03:24:55;;;;;;;259.02;237.20;;;;;;;;;;5010019;28;25117;-71
2023/11/13 03:27:21;;;;;;;271.05;248.27;;;;;;;;;;5006250;28;25054;-71
2023/11/13 03:29:47;;;;;;;272.33;248.73;;;;;;;;;;4999019;28;25179;-72
2023/11/13 03:32:13;;;;;;;279.63;254.93;;;;;;;;;;4994917;28;25084;-73
2023/11/13 03:34:40;;;;;;;286.83;261.50;;;;;;;;;;5005760;28;25069;-72
2023/11/13 03:37:06;;;;;;;292.20;266.48;;;;;;;;;;4988523;28;25059;-72
2023/11/13 03:39:32;;;;;;;287.77;262.90;;;;;;;;;;5005192;28;25127;-71
2023/11/13 03:41:58;;;;;;;295.83;270.55;;;;;;;;;;4998490;28;25071;-72
2023/11/13 03:44:24;;;;;;;316.45;288.90;;;;;;;;;;5000614;28;25096;-72
2023/11/13 03:46:51;;;;;;;319.42;291.83;;;;;;;;;;4998845;28;25177;-71
2023/11/13 03:49:17;;;;;;;334.13;305.75;;;;;;;;;;5006931;28;25071;-72
2023/11/13 03:51:43;;;;;;;334.00;305.73;;;;;;;;;;5005880;28;25132;-72
2023/11/13 03:54:09;;;;;;;341.13;311.90;;;;;;;;;;5002061;28;25084;-71
2023/11/13 03:56:35;;;;;;;339.13;310.17;;;;;;;;;;4990641;28;25080;-71
2023/11/13 03:59:01;;;;;;;321.67;294.02;;;;;;;;;;5004332;28;25092;-72
2023/11/13 04:01:27;;;;;;;339.52;310.50;;;;;;;;;;5006445;28;25066;-71
2023/11/13 04:03:53;;;;;;;339.10;310.80;;;;;;;;;;5006961;28;25101;-72
2023/11/13 04:06:19;;;;;;;330.58;302.27;;;;;;;;;;5007222;28;25143;-71
2023/11/13 04:08:45;;;;;;;327.42;300.30;;;;;;;;;;5007170;28;25080;-70
2023/11/13 04:11:11;;;;;;;334.88;306.17;;;;;;;;;;4999127;28;25133;-71
2023/11/13 04:13:37;;;;;;;346.17;316.30;;;;;;;;;;4994348;28;25132;-72
2023/11/13 04:16:04;;;;;;;332.10;304.30;;;;;;;;;;4988900;28;25064;-72
2023/11/13 04:18:34;;;;;;;333.30;304.95;;;;;;;;;;4991561;28;25052;-71
2023/11/13 04:21:00;;;;;;;348.23;316.50;;;;;;;;;;4992068;28;25060;-72
2023/11/13 04:23:26;;;;;;;347.73;316.63;;;;;;;;;;4994372;28;25063;-71
2023/11/13 04:25:52;;;;;;;347.88;315.95;;;;;;;;;;4984529;28;25074;-73
2023/11/13 04:28:19;;;;;;;349.80;315.73;;;;;;;;;;4996584;28;25065;-71
2023/11/13 04:30:46;;;;;;;347.58;316.52;;;;;;;;;;4979157;28;25088;-72
2023/11/13 04:33:12;;;;;;;336.30;306.10;;;;;;;;;;4985946;28;25064;-72
2023/11/13 04:35:38;;;;;;;352.63;318.95;;;;;;;;;;4983774;28;25067;-71
2023/11/13 04:38:04;;;;;;;351.45;318.30;;;;;;;;;;4995512;28;25062;-72
2023/11/13 04:40:30;;;;;;;352.02;317.90;;;;;;;;;;4998957;28;25059;-72
2023/11/13 04:42:58;;;;;;;348.60;314.63;;;;;;;;;;5006562;28;25137;-72
2023/11/13 04:45:24;;;;;;;357.73;320.23;;;;;;;;;;4996512;28;25056;-71
2023/11/13 04:47:50;;;;;;;346.35;312.02;;;;;;;;;;4999659;28;25083;-71
2023/11/13 04:50:16;;;;;;;350.95;313.88;;;;;;;;;;4985249;28;25085;-73
2023/11/13 04:52:42;;;;;;;351.40;316.67;;;;;;;;;;4993132;28;25089;-73
2023/11/13 04:55:10;;;;;;;344.42;308.33;;;;;;;;;;4981492;28;25178;-72
2023/11/13 04:57:36;;;;;;;338.05;304.45;;;;;;;;;;4992500;28;25106;-72
2023/11/13 05:00:06;;;;;;;368.02;312.08;;;;;;;;;;5000944;28;25169;-71
2023/11/13 05:02:37;;;;;;;357.02;310.00;;;;;;;;;;5005827;28;25067;-72
2023/11/13 05:05:03;;;;;;;388.52;315.10;;;;;;;;;;4998225;28;25068;-72
2023/11/13 05:07:29;;;;;;;365.92;306.90;;;;;;;;;;4985397;28;25095;-72
2023/11/13 05:09:55;;;;;;;342.58;305.27;;;;;;;;;;4988664;28;25087;-72
2023/11/13 05:12:21;;;;;;;330.02;295.38;;;;;;;;;;4981641;28;25157;-72
2023/11/13 05:14:48;;;;;;;371.33;305.73;;;;;;;;;;4985581;28;25107;-72
2023/11/13 05:17:14;;;;;;;379.02;309.35;;;;;;;;;;4987517;28;25086;-71
2023/11/13 05:19:43;;;;;;;339.42;300.70;;;;;;;;;;4990119;28;25086;-71
2023/11/13 05:22:10;;;;;;;325.33;290.95;;;;;;;;;;4982858;28;25128;-71
2023/11/13 05:24:36;;;;;;;355.17;283.75;;;;;;;;;;4988383;28;25090;-72
2023/11/13 05:27:03;;;;;;;329.33;280.45;;;;;;;;;;4986197;28;25100;-70
2023/11/13 05:29:29;;;;;;;374.70;300.80;;;;;;;;;;4998141;28;25053;-71
2023/11/13 05:31:56;;;;;;;382.00;304.90;;;;;;;;;;4992370;28;25151;-71
2023/11/13 05:34:24;;;;;;;369.42;288.95;;;;;;;;;;5006376;28;25069;-71
2023/11/13 05:36:50;;;;;;;378.50;283.13;;;;;;;;;;5005075;28;25128;-71
2023/11/13 05:39:16;;;;;;;369.63;280.88;;;;;;;;;;4997541;28;25076;-71
2023/11/13 05:41:42;;;;;;;424.27;290.05;;;;;;;;;;4983622;28;25095;-74
2023/11/13 05:44:08;;;;;;;384.73;289.63;;;;;;;;;;5002942;28;25074;-71
2023/11/13 05:46:34;;;;;;;344.83;297.02;;;;;;;;;;5001389;28;25057;-72
2023/11/13 05:49:00;;;;;;;404.92;329.50;;;;;;;;;;5005899;28;25061;-72
2023/11/13 05:51:26;;;;;;;385.38;326.65;;;;;;;;;;4996633;28;25107;-71
2023/11/13 05:53:52;;;;;;;346.00;256.55;;;;;;;;;;4994600;28;25080;-71
2023/11/13 05:56:19;;;;;;;331.30;254.43;;;;;;;;;;4991803;28;25070;-71
2023/11/13 05:58:45;;;;;;;386.40;276.90;;;;;;;;;;4986121;28;25087;-72
2023/11/13 06:01:11;;;;;;;397.63;293.92;;;;;;;;;;4986342;28;25061;-73
2023/11/13 06:03:37;;;;;;;317.35;218.98;;;;;;;;;;4984179;28;25072;-72
2023/11/13 06:06:06;;;;;;;271.17;224.30;;;;;;;;;;4993922;28;25053;-73
2023/11/13 06:08:32;;;;;;;312.77;234.00;;;;;;;;;;4986713;28;25055;-72
2023/11/13 06:10:58;;;;;;;276.88;218.85;;;;;;;;;;4994636;28;25062;-73
2023/11/13 06:13:26;;;;;;;333.50;257.58;;;;;;;;;;4980696;28;25070;-71
2023/11/13 06:15:52;;;;;;;324.20;263.75;;;;;;;;;;4985877;28;25125;-72
2023/11/13 06:18:18;;;;;;;301.15;238.95;;;;;;;;;;4976437;28;25085;-71
2023/11/13 06:20:44;;;;;;;328.92;251.70;;;;;;;;;;4979669;28;25077;-72
2023/11/13 06:23:11;;;;;;;313.55;258.05;;;;;;;;;;4986713;28;25142;-71
2023/11/13 06:25:36;;;;;;;299.58;249.73;;;;;;;;;;4992355;28;25136;-72
2023/11/13 06:28:03;;;;;;;238.95;207.25;;;;;;;;;;5000878;28;25070;-73
2023/11/13 06:30:30;;;;;;;283.27;225.25;;;;;;;;;;5008492;28;25106;-72
2023/11/13 06:32:56;;;;;;;276.17;227.73;;;;;;;;;;5004935;28;25043;-72
2023/11/13 06:35:22;;;;;;;262.75;234.40;;;;;;;;;;5002018;28;25146;-72
2023/11/13 06:37:48;;;;;;;360.85;253.73;;;;;;;;;;5001484;28;25057;-72
2023/11/13 06:40:16;;;;;;;271.70;239.07;;;;;;;;;;4999519;28;25130;-73
2023/11/13 06:42:43;;;;;;;250.93;217.38;;;;;;;;;;5012247;28;25066;-73
2023/11/13 06:45:11;;;;;;;282.23;224.18;;;;;;;;;;5003195;28;25087;-71
2023/11/13 06:47:37;;;;;;;288.27;208.80;;;;;;;;;;4998487;28;25078;-72
2023/11/13 06:50:04;;;;;;;273.70;218.57;;;;;;;;;;4999922;28;25051;-72
2023/11/13 06:52:31;;;;;;;273.25;228.60;;;;;;;;;;5000461;28;25054;-71
2023/11/13 06:54:58;;;;;;;243.48;217.73;;;;;;;;;;5008777;28;25052;-72
2023/11/13 06:57:27;;;;;;;311.13;227.20;;;;;;;;;;5005400;28;25093;-73
2023/11/13 06:59:53;;;;;;;252.32;216.00;;;;;;;;;;5006676;28;25051;-72
2023/11/13 07:02:21;;;;;;;379.13;235.40;;;;;;;;;;5004246;28;25068;-73
2023/11/13 07:04:50;;;;;;;276.88;224.68;;;;;;;;;;5000505;28;25120;-75
2023/11/13 07:07:16;;;;;;;265.25;221.40;;;;;;;;;;5002612;28;25077;-73
2023/11/13 07:09:42;;;;;;;292.23;225.05;;;;;;;;;;5004135;28;25074;-72
2023/11/13 07:12:08;;;;;;;263.50;223.63;;;;;;;;;;5002129;28;25073;-73
2023/11/13 07:14:34;;;;;;;280.33;222.32;;;;;;;;;;5016420;28;25055;-74
2023/11/13 07:17:00;;;;;;;248.68;187.98;;;;;;;;;;5008300;28;25052;-74
2023/11/13 07:19:26;;;;;;;203.05;181.05;;;;;;;;;;5003831;28;25062;-73
2023/11/13 07:21:52;;;;;;;227.70;177.85;;;;;;;;;;5008657;28;25151;-74
2023/11/13 07:24:18;;;;;;;241.43;174.20;;;;;;;;;;5007452;28;25067;-73
2023/11/13 07:26:45;;;;;;;228.63;175.65;;;;;;;;;;5007522;28;25049;-73
2023/11/13 07:29:11;;;;;;;263.80;182.45;;;;;;;;;;5005785;28;25046;-74
2023/11/13 07:31:38;;;;;;;216.18;177.68;;;;;;;;;;5005607;28;25064;-73
2023/11/13 07:34:04;;;;;;;228.88;178.63;;;;;;;;;;5007828;28;25061;-74
2023/11/13 07:36:31;;;;;;;229.18;176.68;;;;;;;;;;5011336;28;25065;-74
2023/11/13 07:38:58;;;;;;;195.93;172.80;;;;;;;;;;5001250;28;25161;-72
2023/11/13 07:41:24;;;;;;;194.57;171.38;;;;;;;;;;5013997;28;25119;-74
2023/11/13 07:43:54;;;;;;;180.65;160.93;;;;;;;;;;5014201;28;25086;-75
2023/11/13 07:46:20;;;;;;;176.93;157.48;;;;;;;;;;5008086;28;25075;-73
2023/11/13 07:48:46;;;;;;;187.65;150.18;;;;;;;;;;5016110;28;25052;-74
2023/11/13 07:51:12;;;;;;;172.70;146.15;;;;;;;;;;5011036;28;25065;-75
2023/11/13 07:53:38;;;;;;;191.50;147.05;;;;;;;;;;5002958;28;25079;-73
2023/11/13 07:56:05;;;;;;;155.60;136.38;;;;;;;;;;4999484;28;25136;-72
2023/11/13 07:58:31;;;;;;;176.27;131.73;;;;;;;;;;5003982;28;25054;-74
2023/11/13 08:00:57;;;;;;;137.15;121.70;;;;;;;;;;5011134;28;25077;-75
2023/11/13 08:03:24;;;;;;;156.70;119.00;;;;;;;;;;5008582;28;25061;-74
2023/11/13 08:05:50;;;;;;;124.72;111.50;;;;;;;;;;5009467;28;25049;-75
2023/11/13 08:08:16;;;;;;;129.77;116.30;;;;;;;;;;5006032;28;25053;-74
2023/11/13 08:10:46;;;;;;;127.13;106.38;;;;;;;;;;5009880;28;25135;-76
2023/11/13 08:13:13;;;;;;;112.72;100.05;;;;;;;;;;5015913;28;25084;-76
2023/11/13 08:15:39;;;;;;;119.85;100.63;;;;;;;;;;5009965;28;25144;-76
2023/11/13 08:18:05;;;;;;;111.20;95.72;;;;;;;;;;5004282;28;25066;-77
2023/11/13 08:20:31;;;;;;;109.10;93.05;;;;;;;;;;5002843;28;25057;-76
2023/11/13 08:22:57;;;;;;;103.25;91.40;;;;;;;;;;5006806;28;25073;-76
2023/11/13 08:25:24;;;;;;;106.63;89.30;;;;;;;;;;5004904;28;25075;-76
2023/11/13 08:27:51;;;;;;;109.75;83.65;;;;;;;;;;5005517;28;25074;-76
2023/11/13 08:30:22;;;;;;;95.10;77.18;;;;;;;;;;5008199;28;25092;-75
2023/11/13 08:32:48;;;;;;;83.80;74.65;;;;;;;;;;5002167;28;25076;-75
2023/11/13 08:35:15;;;;;;;99.70;79.32;;;;;;;;;;5005986;28;25058;-75
2023/11/13 08:37:47;;;;;;;93.20;77.97;;;;;;;;;;5010293;28;25066;-75
2023/11/13 08:40:17;;;;;;;86.75;77.35;;;;;;;;;;5006187;28;25059;-75
2023/11/13 08:42:43;;;;;;;95.25;84.95;;;;;;;;;;5018210;28;25087;-76
2023/11/13 08:45:13;;;;;;;98.80;88.68;;;;;;;;;;5011057;28;25070;-76
2023/11/13 08:47:40;;;;;;;107.50;95.40;;;;;;;;;;5007955;28;25049;-75
2023/11/13 08:50:11;;;;;;;109.10;97.60;;;;;;;;;;5011264;28;25072;-73
2023/11/13 08:52:39;;;;;;;104.93;94.45;;;;;;;;;;5011009;28;25130;-74
2023/11/13 08:55:05;;;;;;;107.65;97.07;;;;;;;;;;5004238;28;25069;-75
2023/11/13 08:57:33;;;;;;;103.00;93.35;;;;;;;;;;5009449;28;25047;-76
2023/11/13 08:59:59;;;;;;;101.82;91.07;;;;;;;;;;4997578;28;25067;-73
2023/11/13 09:02:25;;;;;;;102.55;92.53;;;;;;;;;;5001414;28;25081;-75
2023/11/13 09:04:54;;;;;;;105.30;94.90;;;;;;;;;;5008528;28;25054;-75
2023/11/13 09:07:21;;;;;;;100.63;90.05;;;;;;;;;;5011366;28;25066;-74
2023/11/13 09:09:54;;;;;;;113.65;101.70;;;;;;;;;;5009935;28;25113;-74
2023/11/13 09:12:20;;;;;;;121.10;109.90;;;;;;;;;;5003277;28;25138;-74
2023/11/13 09:14:47;;;;;;;108.30;98.00;;;;;;;;;;5008409;28;25164;-75
2023/11/13 09:17:13;;;;;;;105.72;95.93;;;;;;;;;;5008639;28;25076;-74
2023/11/13 09:19:42;;;;;;;100.80;91.30;;;;;;;;;;5014109;28;25115;-74
2023/11/13 09:22:09;;;;;;;98.20;88.53;;;;;;;;;;5010095;28;25134;-74
2023/11/13 09:24:36;;;;;;;97.22;87.82;;;;;;;;;;5016896;28;25061;-74
2023/11/13 09:27:02;;;;;;;97.43;88.50;;;;;;;;;;5008594;28;25094;-76
2023/11/13 09:29:28;;;;;;;98.70;89.40;;;;;;;;;;4999758;28;25062;-76
2023/11/13 09:31:55;;;;;;;103.47;94.20;;;;;;;;;;5002615;28;25135;-75
2023/11/13 09:34:22;;;;;;;102.15;92.78;;;;;;;;;;5007402;28;25072;-76
2023/11/13 09:36:48;;;;;;;102.80;93.28;;;;;;;;;;5002639;28;25065;-75
2023/11/13 09:39:14;;;;;;;104.13;94.68;;;;;;;;;;5003747;28;25065;-75
2023/11/13 09:41:45;;;;;;;99.35;90.53;;;;;;;;;;5021592;28;25094;-75
2023/11/13 09:44:11;;;;;;;100.57;91.22;;;;;;;;;;5022350;28;25042;-76
2023/11/13 09:46:39;;;;;;;106.93;97.45;;;;;;;;;;5003177;28;25114;-75
2023/11/13 09:49:10;;;;;;;100.55;91.57;;;;;;;;;;5003620;28;25088;-75
2023/11/13 09:51:38;;;;;;;98.60;89.78;;;;;;;;;;5005998;28;25114;-75
2023/11/13 09:54:04;;;;;;;105.18;95.85;;;;;;;;;;5031675;28;25068;-75
2023/11/13 09:56:31;;;;;;;104.32;94.95;;;;;;;;;;5012157;28;25094;-75
2023/11/13 09:58:57;;;;;;;101.68;92.93;;;;;;;;;;5019565;28;25079;-75
2023/11/13 10:01:24;;;;;;;95.35;87.00;;;;;;;;;;5019450;28;25138;-76
2023/11/13 10:03:50;;;;;;;105.65;96.32;;;;;;;;;;5020336;28;25092;-76
2023/11/13 10:06:16;;;;;;;110.88;101.22;;;;;;;;;;5011701;28;25061;-77
2023/11/13 10:08:47;;;;;;;109.55;100.00;;;;;;;;;;5011018;28;25088;-77
2023/11/13 10:11:13;;;;;;;108.45;99.07;;;;;;;;;;5007138;28;25080;-77
2023/11/13 10:13:39;;;;;;;106.60;97.30;;;;;;;;;;5010832;28;25087;-75
2023/11/13 10:16:22;;;;;;;125.47;114.70;;;;;;;;;;5018163;28;25088;-75
2023/11/13 10:18:49;;;;;;;119.13;109.05;;;;;;;;;;5023675;28;25055;-74
2023/11/13 10:21:32;;;;;;;123.18;112.78;;;;;;;;;;5013925;28;25079;-77
2023/11/13 10:24:15;;;;;;;116.40;105.97;;;;;;;;;;5013978;28;25053;-75
2023/11/13 10:26:41;;;;;;;119.45;109.47;;;;;;;;;;5013183;28;25079;-74
2023/11/13 10:29:27;;;;;;;119.47;109.25;;;;;;;;;;5006392;28;25172;-76
2023/11/13 10:31:54;;;;;;;126.68;115.50;;;;;;;;;;5004690;28;25080;-76
2023/11/13 10:34:20;;;;;;;124.32;113.30;;;;;;;;;;5007731;28;25051;-75
2023/11/13 10:37:06;;;;;;;118.50;107.72;;;;;;;;;;5000837;28;25071;-76
2023/11/13 10:39:42;;;;;;;122.47;111.82;;;;;;;;;;4996528;28;25090;-75
2023/11/13 10:42:25;;;;;;;123.32;112.07;;;;;;;;;;4986523;28;25094;-76
2023/11/13 10:44:52;;;;;;;120.15;109.90;;;;;;;;;;4984491;28;25078;-75
2023/11/13 10:47:23;;;;;;;117.78;107.15;;;;;;;;;;4984949;28;25069;-75
2023/11/13 10:49:56;;;;;;;131.30;119.25;;;;;;;;;;4993097;28;25053;-75
2023/11/13 10:52:23;;;;;;;132.00;119.68;;;;;;;;;;4990221;28;25067;-74
2023/11/13 10:54:51;;;;;;;140.32;127.35;;;;;;;;;;4986924;28;25076;-75
2023/11/13 10:57:20;;;;;;;129.40;115.32;;;;;;;;;;4989265;28;25061;-76
2023/11/13 10:59:47;;;;;;;107.55;96.28;;;;;;;;;;4988283;28;25076;-75
2023/11/13 11:02:19;;;;;;;91.68;81.80;;;;;;;;;;4988715;28;25064;-76
2023/11/13 11:04:47;;;;;;;74.57;66.82;;;;;;;;;;4990954;28;25136;-75
2023/11/13 11:07:13;;;;;;;78.75;65.78;;;;;;;;;;5000866;28;25053;-74
2023/11/13 11:09:41;;;;;;;73.07;60.33;;;;;;;;;;4987683;28;25104;-75
2023/11/13 11:12:07;;;;;;;82.03;66.40;;;;;;;;;;4981864;28;25058;-75
2023/11/13 11:14:43;;;;;;;85.28;64.45;;;;;;;;;;4990376;28;25036;-76
2023/11/13 11:17:16;;;;;;;66.43;59.05;;;;;;;;;;4995308;28;25074;-75
2023/11/13 11:19:46;;;;;;;71.70;58.42;;;;;;;;;;4993373;28;25096;-76
2023/11/13 11:22:27;;;;;;;83.20;62.05;;;;;;;;;;4996814;28;25054;-74
2023/11/13 11:25:11;;;;;;;75.07;63.17;;;;;;;;;;4993983;28;25069;-75
2023/11/13 11:27:41;;;;;;;66.00;58.42;;;;;;;;;;4997656;28;25066;-74
2023/11/13 11:30:22;;;;;;;74.38;55.35;;;;;;;;;;4991857;28;25049;-72
2023/11/13 11:33:04;;;;;;;78.13;57.15;;;;;;;;;;4993179;28;25137;-72
2023/11/13 11:35:30;;;;;;;74.70;56.58;;;;;;;;;;4994926;28;25081;-76
2023/11/13 11:38:16;;;;;;;79.45;58.17;;;;;;;;;;4983978;28;25055;-74
2023/11/13 11:40:44;;;;;;;77.25;57.95;;;;;;;;;;4992007;28;25099;-74
2023/11/13 11:43:12;;;;;;;86.85;60.65;;;;;;;;;;4984476;28;25111;-74
2023/11/13 11:45:42;;;;;;;70.28;61.08;;;;;;;;;;4993353;28;25059;-74
2023/11/13 11:48:11;;;;;;;71.15;60.78;;;;;;;;;;4983120;28;25065;-75
2023/11/13 11:50:41;;;;;;;76.40;64.47;;;;;;;;;;4982643;28;25068;-76
2023/11/13 11:53:16;;;;;;;66.00;58.90;;;;;;;;;;4986381;28;25055;-76
2023/11/13 11:55:42;;;;;;;75.78;67.57;;;;;;;;;;4983056;28;25086;-76
2023/11/13 11:58:10;;;;;;;79.05;63.22;;;;;;;;;;4988007;28;25104;-74
2023/11/13 12:00:36;;;;;;;75.45;62.20;;;;;;;;;;4989904;28;25058;-73
2023/11/13 12:03:03;;;;;;;73.07;65.18;;;;;;;;;;4989345;28;25117;-74
2023/11/13 12:05:29;;;;;;;75.20;65.75;;;;;;;;;;4988828;28;25051;-75
2023/11/13 12:07:55;;;;;;;81.47;63.58;;;;;;;;;;4984340;28;25070;-77
2023/11/13 12:10:21;;;;;;;74.40;61.25;;;;;;;;;;4984489;28;25093;-75
2023/11/13 12:12:48;;;;;;;69.90;59.25;;;;;;;;;;4984790;28;25063;-75
2023/11/13 12:15:14;;;;;;;70.38;60.17;;;;;;;;;;4986421;28;25102;-73
2023/11/13 12:17:41;;;;;;;69.72;60.60;;;;;;;;;;4979078;28;25085;-76
2023/11/13 12:20:09;;;;;;;67.43;60.10;;;;;;;;;;4978583;28;25079;-75
2023/11/13 12:22:35;;;;;;;66.45;59.40;;;;;;;;;;4988673;28;25061;-75
2023/11/13 12:25:03;;;;;;;68.18;61.17;;;;;;;;;;4985571;28;25061;-75
2023/11/13 12:27:30;;;;;;;71.82;64.50;;;;;;;;;;4991682;28;25087;-77
2023/11/13 12:30:05;;;;;;;69.43;62.40;;;;;;;;;;4993253;28;25169;-76
2023/11/13 12:32:32;;;;;;;71.03;63.88;;;;;;;;;;4993627;28;25086;-74
2023/11/13 12:34:59;;;;;;;73.55;66.43;;;;;;;;;;4989574;28;25056;-74
2023/11/13 12:37:27;;;;;;;73.25;65.72;;;;;;;;;;4987637;28;25073;-77
2023/11/13 12:39:58;;;;;;;75.07;67.78;;;;;;;;;;4977331;28;25053;-75
2023/11/13 12:42:26;;;;;;;73.43;66.37;;;;;;;;;;4988354;28;25145;-75
2023/11/13 12:44:55;;;;;;;72.93;65.40;;;;;;;;;;4984657;28;25116;-75
2023/11/13 12:47:21;;;;;;;71.28;64.25;;;;;;;;;;4983692;28;25141;-73
2023/11/13 12:49:48;;;;;;;70.63;63.75;;;;;;;;;;4982929;28;25069;-74
2023/11/13 12:52:18;;;;;;;73.53;66.80;;;;;;;;;;4985519;28;25088;-73
2023/11/13 12:54:55;;;;;;;79.05;71.65;;;;;;;;;;4983051;28;25153;-74
2023/11/13 12:57:21;;;;;;;75.38;68.03;;;;;;;;;;4988107;28;25097;-73
2023/11/13 12:59:48;;;;;;;78.57;71.07;;;;;;;;;;4983046;28;25086;-73
2023/11/13 13:02:14;;;;;;;80.13;72.63;;;;;;;;;;4982583;28;25176;-73
2023/11/13 13:04:44;;;;;;;74.28;67.38;;;;;;;;;;4980501;28;25086;-75
2023/11/13 13:07:12;;;;;;;77.40;70.57;;;;;;;;;;4985711;28;25057;-75
2023/11/13 13:09:39;;;;;;;76.68;69.53;;;;;;;;;;4989202;28;25089;-75
2023/11/13 13:12:05;;;;;;;75.90;69.25;;;;;;;;;;4988759;28;25144;-74
2023/11/13 13:14:32;;;;;;;73.88;67.10;;;;;;;;;;4981563;28;25088;-75
2023/11/13 13:17:00;;;;;;;72.70;65.80;;;;;;;;;;4990699;28;25151;-74
2023/11/13 13:19:27;;;;;;;72.85;66.10;;;;;;;;;;4978829;28;25048;-73
2023/11/13 13:21:53;;;;;;;80.07;72.82;;;;;;;;;;4989194;28;25072;-74
2023/11/13 13:24:19;;;;;;;85.20;77.40;;;;;;;;;;4990704;28;25119;-71
2023/11/13 13:26:45;;;;;;;81.03;73.43;;;;;;;;;;4988164;28;25155;-72
2023/11/13 13:29:12;;;;;;;79.93;72.65;;;;;;;;;;4982805;28;25074;-73
2023/11/13 13:31:38;;;;;;;81.25;73.70;;;;;;;;;;4984786;28;25054;-73
2023/11/13 13:34:05;;;;;;;83.95;76.40;;;;;;;;;;4985360;28;25055;-72
2023/11/13 13:36:31;;;;;;;84.38;76.68;;;;;;;;;;5000734;28;25063;-72
2023/11/13 13:38:57;;;;;;;87.95;79.85;;;;;;;;;;4983687;28;25066;-71
2023/11/13 13:41:25;;;;;;;86.85;78.82;;;;;;;;;;4981805;28;25134;-71
2023/11/13 13:43:52;;;;;;;88.22;80.25;;;;;;;;;;4977742;28;25058;-72
2023/11/13 13:46:18;;;;;;;87.88;79.88;;;;;;;;;;4977156;28;25165;-71
2023/11/13 13:48:44;;;;;;;91.57;83.63;;;;;;;;;;4983424;28;25069;-72
2023/11/13 13:51:12;;;;;;;90.65;82.10;;;;;;;;;;4987277;28;25157;-73
2023/11/13 13:53:42;;;;;;;93.00;84.97;;;;;;;;;;4986505;28;25069;-73
2023/11/13 13:56:20;;;;;;;96.03;87.93;;;;;;;;;;4981701;28;25073;-71
2023/11/13 13:58:47;;;;;;;95.97;87.75;;;;;;;;;;4995185;28;25119;-74
2023/11/13 14:01:13;;;;;;;93.00;84.82;;;;;;;;;;4990703;28;25085;-72